(°C)
(°C)
Z
ZSZ
ZSZ
ZSZ
ZSZ
ZSZ
ZSZ
(km/h)
16-31
17-32
17-32
16-32
16-31
16-31
16-30
(mm)
0
0
0
0
0
0
0
(%)
15
15
22
15
8
24
9

Výška Slnka nad obzorom

/ -21.4°
sun-icon
UV 1
06:47
19:33
Dorastajúci polmesiac (137°)
19:13
00:55

Správy METAR pre lokalitu 57.92°S 56.02°V (USPP)

Čas Podmienky Teplota/
Rosný bod
Vietor Viditeľnosť Počasie Oblaky Tlak Zmeniť Nespracované
MVFR 7°C / 6°C 310º 8kt >10km - Broken Clouds 2000ft 1003 No Significant change. Runway 21: Wet or puddles, 51-100% contamination with 1mm, friction coefficient 0.50. USPP 162230Z 31004MPS 9999 BKN020 07/06 Q1003 R21/290150 NOSIG RMK QFE741
MVFR 7°C / 6°C 300º 8kt >10km - Broken Clouds 2200ft 1002 No Significant change. Runway 21: Wet or puddles, 51-100% contamination with 1mm, friction coefficient 0.50. USPP 162200Z 30004MPS 9999 BKN022 07/06 Q1002 R21/290150 NOSIG RMK QFE741
MVFR 6°C / 6°C 310º variable 280º to 340º 8kt >10km - Broken Clouds 2700ft 1002 No Significant change. Runway 21: Wet or puddles, 51-100% contamination with 1mm, friction coefficient 0.50. USPP 162130Z 31004MPS 280V340 9999 BKN027 06/06 Q1002 R21/290150 NOSIG RMK QFE741
MVFR 6°C / 6°C 310º variable 290º to 350º 8kt >10km - Few Clouds 1000ft 1002 No Significant change. Runway 21: Wet or puddles, 51-100% contamination with 1mm, friction coefficient 0.50. USPP 162100Z 31004MPS 290V350 9999 FEW010 BKN021 06/06 Q1002 R21/290150 NOSIG RMK QFE741
MVFR 6°C / 6°C 300º 10kt >10km - Broken Clouds 2600ft 1002 No Significant change. Runway 21: Wet or puddles, 51-100% contamination with 1mm, friction coefficient 0.50. USPP 162030Z 30005MPS 9999 BKN026 06/06 Q1002 R21/290150 NOSIG RMK QFE741
MVFR 6°C / 5°C 310º variable 290º to 350º 8kt >10km - Few Clouds 1000ft 1002 No Significant change. Runway 21: Wet or puddles, 51-100% contamination with 1mm, friction coefficient 0.50. USPP 162000Z 31004MPS 290V350 9999 FEW010 BKN016 06/05 Q1002 R21/290150 NOSIG RMK QFE741
MVFR 6°C / 5°C 310º variable 280º to 350º 8kt >10km - Few Clouds 1000ft 1001 No Significant change. Runway 21: Wet or puddles, 51-100% contamination with 1mm, friction coefficient 0.50. USPP 161930Z 31004MPS 280V350 9999 FEW010 BKN015 06/05 Q1001 R21/290150 NOSIG RMK QFE740
MVFR 6°C / 5°C 310º 8kt >10km - Few Clouds 1000ft 1001 No Significant change. Runway 21: Wet or puddles, 51-100% contamination with 1mm, friction coefficient 0.50. USPP 161900Z 31004MPS 9999 FEW010 OVC016 06/05 Q1001 R21/290150 NOSIG RMK QFE740
MVFR 6°C / 5°C 310º 10kt >10km - Scattered Clouds 900ft 1001 No Significant change. Runway 21: Wet or puddles, 51-100% contamination with 1mm, friction coefficient 0.50. USPP 161830Z 31005MPS 9999 SCT009 OVC019 06/05 Q1001 R21/290150 NOSIG RMK QFE740
MVFR 6°C / 5°C 310º 10kt >10km - Scattered Clouds 1000ft 1001 No Significant change. Runway 21: Wet or puddles, 51-100% contamination with 1mm, friction coefficient 0.50. USPP 161800Z 31005MPS 9999 SCT010 OVC019 06/05 Q1001 R21/290150 NOSIG RMK QFE740
MVFR 6°C / 5°C 310º 10kt >10km - Scattered Clouds 900ft 1001 Temporary: 33003G15MPS Visibility 3200. Light Showers Rain . Broken Clouds 1300ft. Cumulonimbus RMK QFE740 . Runway 21: Wet or puddles, 51-100% contamination with 1mm, friction coefficient 0.50. USPP 161730Z 31005MPS 9999 SCT009 OVC017 06/05 Q1001 R21/290150 TEMPO 33003G15MPS 3200 -SHRA BKN013CB RMK QFE740
MVFR 6°C / 5°C 300º 10kt >10km - Overcast 1500ft 1001 Temporary: 33003G15MPS Visibility 3200. Light Showers Rain . Broken Clouds 1300ft. Cumulonimbus RMK QFE740 . Runway 21: Wet or puddles, 51-100% contamination with 1mm, friction coefficient 0.50. USPP 161700Z 30005MPS 9999 OVC015 06/05 Q1001 R21/290150 TEMPO 33003G15MPS 3200 -SHRA BKN013CB RMK QFE740
MVFR 6°C / 5°C 310º 10kt >10km - Overcast 1400ft 1001 Temporary: 33003G15MPS Visibility 3200. Light Showers Rain . Broken Clouds 1300ft. Cumulonimbus RMK QFE740 . Runway 21: Wet or puddles, 51-100% contamination with 1mm, friction coefficient 0.50. USPP 161630Z 31005MPS 9999 OVC014 06/05 Q1001 R21/290150 TEMPO 33003G15MPS 3200 -SHRA BKN013CB RMK QFE740
MVFR 6°C / 5°C 310º 10kt >10km - Overcast 1600ft 1001 Temporary: 33003G15MPS Visibility 3200. Light Showers Rain . Broken Clouds 1300ft. Cumulonimbus RMK QFE740 . Runway 21: Wet or puddles, 51-100% contamination with 1mm, friction coefficient 0.50. USPP 161600Z 31005MPS 9999 OVC016 06/05 Q1001 R21/290150 TEMPO 33003G15MPS 3200 -SHRA BKN013CB RMK QFE740
MVFR 6°C / 4°C 310º variable 290º to 350º 10kt >10km - Broken Clouds 1400ft 1001 Temporary: 33003G15MPS Visibility 3200. Light Showers Rain . Broken Clouds 1300ft. Cumulonimbus RMK QFE740 . Runway 21: Wet or puddles, 51-100% contamination with 1mm, friction coefficient 0.50. USPP 161530Z 31005MPS 290V350 9999 BKN014 06/04 Q1001 R21/290150 TEMPO 33003G15MPS 3200 -SHRA BKN013CB RMK QFE740
MVFR 6°C / 5°C 310º 12kt >10km - Few Clouds 900ft 1001 Temporary: 33003G15MPS Visibility 3200. Light Showers Rain . Broken Clouds 1300ft. Cumulonimbus RMK QFE740 . Runway 21: Wet or puddles, 51-100% contamination with 1mm, friction coefficient 0.50. USPP 161500Z 31006MPS 9999 FEW009 BKN017 06/05 Q1001 R21/290150 TEMPO 33003G15MPS 3200 -SHRA BKN013CB RMK QFE740
MVFR 6°C / 5°C 290º 14kt 8000m Light Rain 1.00mm precipitation Vertical Visibility of 0ft. 1000 Temporary: Visibility 2200. Light Rain . Overcast 500ft. RMK QFE740 . Runway 21: Wet or puddles, 51-100% contamination with 1mm, friction coefficient 0.50. USPP 161430Z 29007MPS 8000 -RA FEW009 BKN012 06/05 Q1000 R21/290150 TEMPO 2200 -RA OVC005 RMK QFE740
MVFR 6°C / 5°C 260º 10kt >10km Light Rain 1.00mm precipitation Vertical Visibility of 0ft. 1000 No Significant change. Runway 21: Wet or puddles, 51-100% contamination with 1mm, friction coefficient 0.50. USPP 161400Z 26005MPS 9999 -RA OVC014 06/05 Q1000 R21/290150 NOSIG RMK QFE740
MVFR 6°C / 5°C 280º 10kt >10km - Few Clouds 1100ft 1000 No Significant change. Runway 21: Wet or puddles, 51-100% contamination with 1mm, friction coefficient 0.50. USPP 161330Z 28005MPS 9999 FEW011 BKN023 06/05 Q1000 R21/290150 NOSIG RMK QFE740
MVFR 6°C / 5°C 270º 12kt >10km - Overcast 1200ft 1000 Temporary: Visibility 3200. Light Rain . Overcast 400ft. RMK QFE740 . Runway 21: Wet or puddles, 51-100% contamination with 1mm, friction coefficient 0.50. USPP 161300Z 27006MPS 9999 OVC012 06/05 Q1000 R21/290150 TEMPO 3200 -RA OVC004 RMK QFE740
MVFR 6°C / 5°C 280º 12kt >10km Light Rain 1.00mm precipitation Vertical Visibility of 0ft. 1001 Temporary: Visibility 3200. Light Rain . Overcast 400ft. RMK QFE740 . Runway 21: Wet or puddles, 51-100% contamination with 1mm, friction coefficient 0.50. USPP 161230Z 28006MPS 9999 -RA OVC011 06/05 Q1001 R21/290150 TEMPO 3200 -RA OVC004 RMK QFE740
MVFR 6°C / 5°C 270º 12kt >10km - Overcast 1100ft 1001 Temporary: Visibility 3200. Light Rain . Overcast 400ft. RMK QFE740 . Runway 21: Wet or puddles, 51-100% contamination with 1mm, friction coefficient 0.50. USPP 161200Z 27006MPS 9999 OVC011 06/05 Q1001 R21/290150 TEMPO 3200 -RA OVC004 RMK QFE740
MVFR 6°C / 5°C 270º 14kt >10km - Overcast 1400ft 1001 Temporary: Visibility 3200. Light Rain . Overcast 400ft. RMK QFE740 . Runway 21: Wet or puddles, 51-100% contamination with 1mm, friction coefficient 0.50. USPP 161130Z 27007MPS 9999 OVC014 06/05 Q1001 R21/290150 TEMPO 3200 -RA OVC004 RMK QFE740
MVFR 6°C / 5°C 270º 12kt >10km Light Rain 1.00mm precipitation Vertical Visibility of 0ft. 1001 Temporary: Visibility 3200. Light Rain . Overcast 400ft. RMK QFE740 . Runway 21: Wet or puddles, 51-100% contamination with 1mm, friction coefficient 0.50. USPP 161100Z 27006MPS 9999 -RA OVC013 06/05 Q1001 R21/290150 TEMPO 3200 -RA OVC004 RMK QFE740

MVFR

7°C / 6°C

[Viac]
Vietor 310º 8kt
Viditeľnosť >10km
Počasie -
Oblaky Broken Clouds 2000ft
Tlak 1003
Zmeniť No Significant change. Runway 21: Wet or puddles, 51-100% contamination with 1mm, friction coefficient 0.50.
Nespracované USPP 162230Z 31004MPS 9999 BKN020 07/06 Q1003 R21/290150 NOSIG RMK QFE741

MVFR

7°C / 6°C

[Viac]
Vietor 300º 8kt
Viditeľnosť >10km
Počasie -
Oblaky Broken Clouds 2200ft
Tlak 1002
Zmeniť No Significant change. Runway 21: Wet or puddles, 51-100% contamination with 1mm, friction coefficient 0.50.
Nespracované USPP 162200Z 30004MPS 9999 BKN022 07/06 Q1002 R21/290150 NOSIG RMK QFE741

MVFR

6°C / 6°C

[Viac]
Vietor 310º variable 280º to 340º 8kt
Viditeľnosť >10km
Počasie -
Oblaky Broken Clouds 2700ft
Tlak 1002
Zmeniť No Significant change. Runway 21: Wet or puddles, 51-100% contamination with 1mm, friction coefficient 0.50.
Nespracované USPP 162130Z 31004MPS 280V340 9999 BKN027 06/06 Q1002 R21/290150 NOSIG RMK QFE741

MVFR

6°C / 6°C

[Viac]
Vietor 310º variable 290º to 350º 8kt
Viditeľnosť >10km
Počasie -
Oblaky Few Clouds 1000ft
Tlak 1002
Zmeniť No Significant change. Runway 21: Wet or puddles, 51-100% contamination with 1mm, friction coefficient 0.50.
Nespracované USPP 162100Z 31004MPS 290V350 9999 FEW010 BKN021 06/06 Q1002 R21/290150 NOSIG RMK QFE741

MVFR

6°C / 6°C

[Viac]
Vietor 300º 10kt
Viditeľnosť >10km
Počasie -
Oblaky Broken Clouds 2600ft
Tlak 1002
Zmeniť No Significant change. Runway 21: Wet or puddles, 51-100% contamination with 1mm, friction coefficient 0.50.
Nespracované USPP 162030Z 30005MPS 9999 BKN026 06/06 Q1002 R21/290150 NOSIG RMK QFE741

MVFR

6°C / 5°C

[Viac]
Vietor 310º variable 290º to 350º 8kt
Viditeľnosť >10km
Počasie -
Oblaky Few Clouds 1000ft
Tlak 1002
Zmeniť No Significant change. Runway 21: Wet or puddles, 51-100% contamination with 1mm, friction coefficient 0.50.
Nespracované USPP 162000Z 31004MPS 290V350 9999 FEW010 BKN016 06/05 Q1002 R21/290150 NOSIG RMK QFE741

MVFR

6°C / 5°C

[Viac]
Vietor 310º variable 280º to 350º 8kt
Viditeľnosť >10km
Počasie -
Oblaky Few Clouds 1000ft
Tlak 1001
Zmeniť No Significant change. Runway 21: Wet or puddles, 51-100% contamination with 1mm, friction coefficient 0.50.
Nespracované USPP 161930Z 31004MPS 280V350 9999 FEW010 BKN015 06/05 Q1001 R21/290150 NOSIG RMK QFE740

MVFR

6°C / 5°C

[Viac]
Vietor 310º 8kt
Viditeľnosť >10km
Počasie -
Oblaky Few Clouds 1000ft
Tlak 1001
Zmeniť No Significant change. Runway 21: Wet or puddles, 51-100% contamination with 1mm, friction coefficient 0.50.
Nespracované USPP 161900Z 31004MPS 9999 FEW010 OVC016 06/05 Q1001 R21/290150 NOSIG RMK QFE740

MVFR

6°C / 5°C

[Viac]
Vietor 310º 10kt
Viditeľnosť >10km
Počasie -
Oblaky Scattered Clouds 900ft
Tlak 1001
Zmeniť No Significant change. Runway 21: Wet or puddles, 51-100% contamination with 1mm, friction coefficient 0.50.
Nespracované USPP 161830Z 31005MPS 9999 SCT009 OVC019 06/05 Q1001 R21/290150 NOSIG RMK QFE740

MVFR

6°C / 5°C

[Viac]
Vietor 310º 10kt
Viditeľnosť >10km
Počasie -
Oblaky Scattered Clouds 1000ft
Tlak 1001
Zmeniť No Significant change. Runway 21: Wet or puddles, 51-100% contamination with 1mm, friction coefficient 0.50.
Nespracované USPP 161800Z 31005MPS 9999 SCT010 OVC019 06/05 Q1001 R21/290150 NOSIG RMK QFE740

MVFR

6°C / 5°C

[Viac]
Vietor 310º 10kt
Viditeľnosť >10km
Počasie -
Oblaky Scattered Clouds 900ft
Tlak 1001
Zmeniť Temporary: 33003G15MPS Visibility 3200. Light Showers Rain . Broken Clouds 1300ft. Cumulonimbus RMK QFE740 . Runway 21: Wet or puddles, 51-100% contamination with 1mm, friction coefficient 0.50.
Nespracované USPP 161730Z 31005MPS 9999 SCT009 OVC017 06/05 Q1001 R21/290150 TEMPO 33003G15MPS 3200 -SHRA BKN013CB RMK QFE740

MVFR

6°C / 5°C

[Viac]
Vietor 300º 10kt
Viditeľnosť >10km
Počasie -
Oblaky Overcast 1500ft
Tlak 1001
Zmeniť Temporary: 33003G15MPS Visibility 3200. Light Showers Rain . Broken Clouds 1300ft. Cumulonimbus RMK QFE740 . Runway 21: Wet or puddles, 51-100% contamination with 1mm, friction coefficient 0.50.
Nespracované USPP 161700Z 30005MPS 9999 OVC015 06/05 Q1001 R21/290150 TEMPO 33003G15MPS 3200 -SHRA BKN013CB RMK QFE740

MVFR

6°C / 5°C

[Viac]
Vietor 310º 10kt
Viditeľnosť >10km
Počasie -
Oblaky Overcast 1400ft
Tlak 1001
Zmeniť Temporary: 33003G15MPS Visibility 3200. Light Showers Rain . Broken Clouds 1300ft. Cumulonimbus RMK QFE740 . Runway 21: Wet or puddles, 51-100% contamination with 1mm, friction coefficient 0.50.
Nespracované USPP 161630Z 31005MPS 9999 OVC014 06/05 Q1001 R21/290150 TEMPO 33003G15MPS 3200 -SHRA BKN013CB RMK QFE740

MVFR

6°C / 5°C

[Viac]
Vietor 310º 10kt
Viditeľnosť >10km
Počasie -
Oblaky Overcast 1600ft
Tlak 1001
Zmeniť Temporary: 33003G15MPS Visibility 3200. Light Showers Rain . Broken Clouds 1300ft. Cumulonimbus RMK QFE740 . Runway 21: Wet or puddles, 51-100% contamination with 1mm, friction coefficient 0.50.
Nespracované USPP 161600Z 31005MPS 9999 OVC016 06/05 Q1001 R21/290150 TEMPO 33003G15MPS 3200 -SHRA BKN013CB RMK QFE740

MVFR

6°C / 4°C

[Viac]
Vietor 310º variable 290º to 350º 10kt
Viditeľnosť >10km
Počasie -
Oblaky Broken Clouds 1400ft
Tlak 1001
Zmeniť Temporary: 33003G15MPS Visibility 3200. Light Showers Rain . Broken Clouds 1300ft. Cumulonimbus RMK QFE740 . Runway 21: Wet or puddles, 51-100% contamination with 1mm, friction coefficient 0.50.
Nespracované USPP 161530Z 31005MPS 290V350 9999 BKN014 06/04 Q1001 R21/290150 TEMPO 33003G15MPS 3200 -SHRA BKN013CB RMK QFE740

MVFR

6°C / 5°C

[Viac]
Vietor 310º 12kt
Viditeľnosť >10km
Počasie -
Oblaky Few Clouds 900ft
Tlak 1001
Zmeniť Temporary: 33003G15MPS Visibility 3200. Light Showers Rain . Broken Clouds 1300ft. Cumulonimbus RMK QFE740 . Runway 21: Wet or puddles, 51-100% contamination with 1mm, friction coefficient 0.50.
Nespracované USPP 161500Z 31006MPS 9999 FEW009 BKN017 06/05 Q1001 R21/290150 TEMPO 33003G15MPS 3200 -SHRA BKN013CB RMK QFE740

MVFR

6°C / 5°C

[Viac]
Vietor 290º 14kt
Viditeľnosť 8000m
Počasie Light Rain 1.00mm precipitation
Oblaky Vertical Visibility of 0ft.
Tlak 1000
Zmeniť Temporary: Visibility 2200. Light Rain . Overcast 500ft. RMK QFE740 . Runway 21: Wet or puddles, 51-100% contamination with 1mm, friction coefficient 0.50.
Nespracované USPP 161430Z 29007MPS 8000 -RA FEW009 BKN012 06/05 Q1000 R21/290150 TEMPO 2200 -RA OVC005 RMK QFE740

MVFR

6°C / 5°C

[Viac]
Vietor 260º 10kt
Viditeľnosť >10km
Počasie Light Rain 1.00mm precipitation
Oblaky Vertical Visibility of 0ft.
Tlak 1000
Zmeniť No Significant change. Runway 21: Wet or puddles, 51-100% contamination with 1mm, friction coefficient 0.50.
Nespracované USPP 161400Z 26005MPS 9999 -RA OVC014 06/05 Q1000 R21/290150 NOSIG RMK QFE740

MVFR

6°C / 5°C

[Viac]
Vietor 280º 10kt
Viditeľnosť >10km
Počasie -
Oblaky Few Clouds 1100ft
Tlak 1000
Zmeniť No Significant change. Runway 21: Wet or puddles, 51-100% contamination with 1mm, friction coefficient 0.50.
Nespracované USPP 161330Z 28005MPS 9999 FEW011 BKN023 06/05 Q1000 R21/290150 NOSIG RMK QFE740

MVFR

6°C / 5°C

[Viac]
Vietor 270º 12kt
Viditeľnosť >10km
Počasie -
Oblaky Overcast 1200ft
Tlak 1000
Zmeniť Temporary: Visibility 3200. Light Rain . Overcast 400ft. RMK QFE740 . Runway 21: Wet or puddles, 51-100% contamination with 1mm, friction coefficient 0.50.
Nespracované USPP 161300Z 27006MPS 9999 OVC012 06/05 Q1000 R21/290150 TEMPO 3200 -RA OVC004 RMK QFE740

MVFR

6°C / 5°C

[Viac]
Vietor 280º 12kt
Viditeľnosť >10km
Počasie Light Rain 1.00mm precipitation
Oblaky Vertical Visibility of 0ft.
Tlak 1001
Zmeniť Temporary: Visibility 3200. Light Rain . Overcast 400ft. RMK QFE740 . Runway 21: Wet or puddles, 51-100% contamination with 1mm, friction coefficient 0.50.
Nespracované USPP 161230Z 28006MPS 9999 -RA OVC011 06/05 Q1001 R21/290150 TEMPO 3200 -RA OVC004 RMK QFE740

MVFR

6°C / 5°C

[Viac]
Vietor 270º 12kt
Viditeľnosť >10km
Počasie -
Oblaky Overcast 1100ft
Tlak 1001
Zmeniť Temporary: Visibility 3200. Light Rain . Overcast 400ft. RMK QFE740 . Runway 21: Wet or puddles, 51-100% contamination with 1mm, friction coefficient 0.50.
Nespracované USPP 161200Z 27006MPS 9999 OVC011 06/05 Q1001 R21/290150 TEMPO 3200 -RA OVC004 RMK QFE740

MVFR

6°C / 5°C

[Viac]
Vietor 270º 14kt
Viditeľnosť >10km
Počasie -
Oblaky Overcast 1400ft
Tlak 1001
Zmeniť Temporary: Visibility 3200. Light Rain . Overcast 400ft. RMK QFE740 . Runway 21: Wet or puddles, 51-100% contamination with 1mm, friction coefficient 0.50.
Nespracované USPP 161130Z 27007MPS 9999 OVC014 06/05 Q1001 R21/290150 TEMPO 3200 -RA OVC004 RMK QFE740

MVFR

6°C / 5°C

[Viac]
Vietor 270º 12kt
Viditeľnosť >10km
Počasie Light Rain 1.00mm precipitation
Oblaky Vertical Visibility of 0ft.
Tlak 1001
Zmeniť Temporary: Visibility 3200. Light Rain . Overcast 400ft. RMK QFE740 . Runway 21: Wet or puddles, 51-100% contamination with 1mm, friction coefficient 0.50.
Nespracované USPP 161100Z 27006MPS 9999 -RA OVC013 06/05 Q1001 R21/290150 TEMPO 3200 -RA OVC004 RMK QFE740

Správy TAF pre lokalitu 57.92°S 56.02°V (USPP)

From till


From till Wind 300º 6kt. Gust 27kt. Visibility 6000m. Light Rain . Broken Clouds 1600ft.
Temporarly from till Wind 340º 6kt. Gust 27kt. Broken Clouds 1100ft.
Becoming from till Wind 300º 6kt. Gust 27kt. Visibility 6000m. Light Showers Rain . Broken Clouds 1800ft.

Nespracované: TAF AMD USPP 162156Z 1621/1721 30003G14MPS 6000 -RA BKN016 TEMPO 1621/1704 34003G14MPS BKN011 BECMG 1704/1705 -SHRA BKN018CB

Aktuálne satelitné snímky a snímky zrážok pre lokalitu 57.92°S 56.02°V

Značka polohy je umiestnená na57.92°S 56.02°V. [Viac]

Satelitné snímky zhotovované v reálnom čase využívajú viditeľné svetlo počas dňa a infračervené žiarenie počas noci. Vzhľadom na to, že infračervené žiarenie zisťuje teplotné rozdiely, snímka v noci nie je tmavá. Nízke oblaky a hmlu je, žiaľ, ťažké odlíšiť od prízemných teplôt, preto môžu byť počas noci takmer neviditeľné. Meteosat satelitné snímky pre Európu sú aktualizované v reálnom čase každých 5 minút. Snímky z GOES-16/GOES-17 (Severná a Južná Amerika) a Himawari (Ázia) sú aktualizované každých 10 minút.

Copyright 2021 EUMETSAT / meteoblue. / Copyright 2021 meteoblue

Radar a krátkodobá predpoveď zrážok pre 57.92°S 56.02°V

Mrholenie
Slabý
Mierne
Ťažké
Veľmi ťažké
Krúpy

Značka polohy je umiestnená na 57.92°S 56.02°V. Táto animácia ukazuje zrážky pozorované radarom za poslednú hodinu a tiež 1h predpoveď. Mrholenie alebo slabé sneženie môže byť pre radar neviditeľné. Intenzita zrážok je farebne označená od svetlomodrej po oranžovú.